AirNav   Everest Fuels
 
 351 users online  

3KY0 Renick Field Airport
Winchester, Kentucky, USA

GOING TO WINCHESTER?


FAA INFORMATION EFFECTIVE 21 MAY 2020

Location

FAA Identifier: 3KY0
Lat/Long: 38-03-08.0000N 084-13-09.0000W
38-03.133333N 084-13.150000W
38.0522222,-84.2191667
(estimated)
Elevation: 951 ft. / 290 m (estimated)
Variation: 04W (1995)
From city: 4 miles NW of WINCHESTER, KY
Time zone: UTC -4 (UTC -5 during Standard Time)
Zip code: 40391

Airport Operations

Airport use: Private use. Permission required prior to landing
Activation date: 08/2015
Control tower: no
ARTCC: INDIANAPOLIS CENTER
FSS: LOUISVILLE FLIGHT SERVICE STATION
Attendance: 
Segmented circle: no

Airport Communications

WX AWOS-3 at IOB (11 nm E): 120.675 (859-498-7001)
WX AWOS-3 at 27K (15 nm NW): 119.975 (502-867-1564)
WX ASOS at LEX (18 nm W): PHONE 859-281-5700

Nearby radio navigation aids

VOR radial/distance  VOR name  Freq  Var
HYKr067/13.0LEXINGTON VOR/DME112.6000E
FFTr106/(33.5)FRANKFORT VOR109.4003W
FLMr177/36.1FALMOUTH VOR/DME117.0004W

 
NDB name  Hdg/Dist  Freq  Var  ID
MOUNT STERLING274/11.221006WIOB .. --- -...
BRIDL112/14.334004WGN --. -.
SECO336/19.839303WXYC -..- -.-- -.-.
GOODALL045/38.531103WDVK -.. ...- -.-

Airport Services

Runway Information

Runway 17/35

Dimensions: 1730 x 60 ft. / 527 x 18 m
Surface: turf
RUNWAY 17  RUNWAY 35
Traffic pattern: leftleft

Airport Ownership and Management from official FAA records

Ownership: Privately-owned
Owner: DOUGLAS HODGKIN
599 COMBS FERRY RD
WINCHESTER, KY 40391
Phone 859-771-7274
Manager: DOUGLAS HODGKIN
599 COMBS FERRY RD
WINCHESTER, KY 40391
Phone 859-771-7274

Airport Operational Statistics

Aircraft based on the field: 1
Single engine airplanes: 1
    

Additional Remarks

FOR CD CTC INDIANAPOLIS ARTCC AT 317-247-2411.

Instrument Procedures

There are no published instrument procedures at 3KY0.

Some nearby airports with instrument procedures:

KIOB - Mount Sterling-Montgomery County Airport (11 nm E)
27K - Georgetown-Scott County Regional Airport (15 nm NW)
KLEX - Blue Grass Airport (18 nm W)
0I8 - Cynthiana-Harrison County Airport (19 nm N)
KRGA - Central Kentucky Regional Airport (26 nm S)
 
Loc | Ops | Rwys | IFR | FBO | Links
Com | Nav | Svcs | Stats | Notes
Aerial photo
No photo
 
Airport distance calculator
Flying to Renick Field Airport? Find the distance to fly.

From to 3KY0

Sunrise and sunset
Times for 31-May-2020
 Local
(UTC-4)
 Zulu
(UTC)
Morning civil twilight05:4609:46
Sunrise06:1710:17
Sunset20:5300:53
Evening civil twilight21:2301:23

Current date and time
Zulu (UTC)  31-May-2020 07:53:35
Local (UTC-4)  31-May-2020 03:53:35
 
METAR
KIOB 
11nm E 
310735Z AUTO 00000KT 10SM CLR 12/09 A3019 RMK AO2 PWINO
K27K 
15nm NW 
310735Z AUTO 02003KT 10SM CLR 12/08 A3017 RMK AO1
KLEX 
18nm W 
310654Z 05005KT 10SM CLR 13/09 A3017 RMK AO2 SLP210 T01280089
TAF
KLEX 
18nm W 
310520Z 3106/0106 02004KT P6SM FEW250 FM311300 02009KT P6SM SKC FM010100 03005KT P6SM SKC
NOTAMs
Click for the latest NOTAMs
NOTAMs are issued by the DoD/FAA and will open in a separate window not controlled by AirNav.

 

 
 

Would you like to see your business listed on this page?

 If your business provides an interesting product or service to pilots, flight crews, aircraft, or users of the Renick Field Airport, you should consider listing it here.  To start the listing process, click on the button below
 
Add a business
 

Other Pages about Renick Field Airport

Update a link
 
Copyright © AirNav, LLC. All rights reserved. Privacy Policy  Contact